createdAt,value
2017-09-02T08:12:27.137Z,14.7
2017-09-02T08:15:24.345Z,14.9
2017-09-02T08:20:20.849Z,15
2017-09-02T08:21:19.665Z,15
2017-09-02T08:22:19.490Z,15
2017-09-02T08:23:18.169Z,15
2017-09-02T08:24:17.605Z,15
2017-09-02T08:26:16.056Z,15
2017-09-02T08:38:06.760Z,15.1
2017-09-02T08:55:53.775Z,15.6
2017-09-02T08:56:24.037Z,15.6
2017-09-02T08:58:51.549Z,15.6
2017-09-02T09:02:48.540Z,15.6
2017-09-02T09:17:37.274Z,15.8
2017-09-02T10:08:00.727Z,16.8
2017-09-02T10:31:43.463Z,17.2
2017-09-02T10:42:35.787Z,17.2
2017-09-02T12:08:35.582Z,17.7
2017-09-02T12:09:34.657Z,17.8
2017-09-02T12:10:34.356Z,17.9
2017-09-02T12:11:33.921Z,17.9
2017-09-02T12:12:32.985Z,18
2017-09-02T12:13:32.427Z,18.1
2017-09-02T12:14:31.613Z,18
2017-09-02T12:15:30.810Z,18
2017-09-02T12:16:29.879Z,17.9
2017-09-02T12:17:29.316Z,17.8
2017-09-02T12:18:28.895Z,17.9
2017-09-02T12:19:28.338Z,17.9
2017-09-02T12:20:27.407Z,18
2017-09-02T12:21:26.858Z,18.1
2017-09-02T12:22:26.171Z,18.2
2017-09-02T12:23:25.369Z,18.3
2017-09-02T12:24:24.694Z,18.4
2017-09-02T12:25:24.026Z,18.5
2017-09-02T12:26:23.339Z,18.6
2017-09-02T12:27:22.786Z,18.6
2017-09-02T12:28:21.863Z,18.6
2017-09-02T12:29:21.550Z,18.6
2017-09-02T12:30:20.740Z,18.6
2017-09-02T12:50:07.071Z,17.7
2017-09-02T13:08:54.162Z,15.3
2017-09-02T13:10:52.500Z,15.3
2017-09-02T13:11:51.820Z,15.3
2017-09-02T13:12:51.398Z,15.2
2017-09-02T13:14:50.231Z,15.2
2017-09-02T13:15:49.297Z,15.2
2017-09-02T13:16:48.350Z,15.2
2017-09-02T13:17:47.672Z,15.2
2017-09-02T13:19:46.525Z,15.2
2017-09-02T13:23:43.756Z,15.5
2017-09-02T13:27:41.029Z,15.6
2017-09-02T13:28:40.077Z,15.6
2017-09-02T13:30:38.650Z,15.5
2017-09-02T13:33:36.365Z,15.6
2017-09-02T13:34:35.676Z,15.6
2017-09-02T13:35:35.116Z,15.5
2017-09-02T13:36:34.313Z,15.5
2017-09-02T13:37:33.759Z,15.5
2017-09-02T13:38:32.940Z,15.5
2017-09-02T13:39:32.126Z,15.5
2017-09-02T13:41:30.714Z,15.5
2017-09-02T13:46:27.087Z,15.3
2017-09-02T13:51:23.979Z,15.3
2017-09-02T13:54:21.968Z,15.3
2017-09-02T13:58:18.570Z,15.3
2017-09-02T14:11:09.679Z,15.5
2017-09-02T14:12:08.614Z,15.5
2017-09-02T14:15:06.843Z,15.6
2017-09-02T14:16:05.797Z,15.6
2017-09-02T14:19:03.887Z,15.7
2017-09-02T14:20:03.078Z,15.7
2017-09-02T14:23:00.669Z,15.8
2017-09-02T14:24:00.234Z,15.8
2017-09-02T14:24:59.663Z,15.8
2017-09-02T14:25:58.854Z,15.8
2017-09-02T14:26:57.798Z,15.8
2017-09-02T14:27:57.372Z,15.9
2017-09-02T14:28:56.314Z,15.9
2017-09-02T14:29:55.767Z,15.9
2017-09-02T14:30:55.082Z,15.9
2017-09-02T14:31:54.391Z,15.9
2017-09-02T14:34:51.980Z,16
2017-09-02T14:35:51.431Z,16
2017-09-02T14:36:50.625Z,16
2017-09-02T14:37:50.067Z,16.1
2017-09-02T14:38:49.379Z,16.1
2017-09-02T14:39:48.943Z,16.1
2017-09-02T14:40:47.622Z,16.1
2017-09-02T14:41:47.442Z,16.2
2017-09-02T14:42:46.629Z,16.2
2017-09-02T14:43:45.939Z,16.2
2017-09-02T14:45:44.273Z,16.3
2017-09-02T14:46:43.460Z,16.3
2017-09-02T14:47:43.032Z,16.3
2017-09-02T14:48:42.607Z,16.3
2017-09-02T14:49:41.668Z,16.3
2017-09-02T14:50:40.987Z,16.3
2017-09-02T14:51:39.926Z,16.3
2017-09-02T14:52:39.630Z,16.3
2017-09-02T14:54:38.352Z,16.3
2017-09-02T14:55:37.166Z,16.3
2017-09-02T14:57:35.878Z,16.3
2017-09-02T14:58:35.582Z,16.3
2017-09-02T14:59:34.143Z,16.3
2017-09-02T15:00:33.973Z,16.3
2017-09-02T15:01:32.917Z,16.3
2017-09-02T15:02:32.508Z,16.3
2017-09-02T15:03:31.706Z,16.3
2017-09-02T15:04:31.151Z,16.4
2017-09-02T15:05:30.105Z,16.4
2017-09-02T15:06:29.283Z,16.4
2017-09-02T15:07:28.716Z,16.4
2017-09-02T15:08:28.029Z,16.4
2017-09-02T15:10:26.871Z,16.5
2017-09-02T15:12:25.071Z,16.5
2017-09-02T15:12:55.194Z,16.5
2017-09-02T15:13:25.955Z,16.5
2017-09-02T15:14:23.890Z,16.5
2017-09-02T15:17:21.735Z,16.7
2017-09-02T15:18:20.926Z,16.7
2017-09-02T15:19:20.621Z,16.7
2017-09-02T15:20:19.554Z,16.8
2017-09-02T15:22:18.135Z,17
2017-09-02T15:22:48.507Z,17
2017-09-02T15:24:16.765Z,17.1
2017-09-02T15:24:47.143Z,17.1
2017-09-02T15:25:17.779Z,17.1
2017-09-02T15:25:48.020Z,17.1
2017-09-02T15:31:12.071Z,17
2017-09-02T15:32:11.267Z,17.1
2017-09-02T15:33:10.712Z,17
2017-09-02T15:40:05.867Z,17.4
2017-09-02T15:41:04.813Z,17.5
2017-09-02T15:44:02.776Z,17.5
2017-09-02T15:45:02.225Z,17.5
2017-09-02T15:47:00.594Z,17.4
2017-09-02T15:48:59.176Z,17.4
2017-09-02T15:49:58.744Z,17.4
2017-09-02T15:50:57.803Z,17.4
2017-09-02T15:51:57.126Z,17.4
2017-09-02T15:52:56.698Z,17.5
2017-09-02T15:53:55.887Z,17.5
2017-09-02T15:54:55.196Z,17.5
2017-09-02T15:55:54.143Z,17.6
2017-09-02T15:56:53.466Z,17.5
2017-09-02T15:57:53.170Z,17.6
2017-09-02T15:58:52.360Z,17.6
2017-09-02T16:00:50.942Z,17.7
2017-09-02T16:02:49.916Z,17.7
2017-09-02T16:03:49.108Z,17.7
2017-09-02T16:06:46.585Z,17.8
2017-09-02T16:07:46.290Z,17.8
2017-09-02T16:08:45.474Z,17.8
2017-09-02T16:09:44.541Z,17.8
2017-09-02T16:10:44.363Z,17.7
2017-09-02T16:11:43.301Z,17.7
2017-09-02T16:12:42.875Z,17.7
2017-09-02T16:13:42.316Z,17.6
2017-09-02T16:14:41.389Z,17.6
2017-09-02T16:15:40.953Z,17.6
2017-09-02T16:16:40.160Z,17.6
2017-09-02T16:17:38.978Z,17.6
2017-09-02T16:18:38.580Z,17.6
2017-09-02T16:19:38.030Z,17.6
2017-09-02T16:21:36.115Z,17.5
2017-09-02T16:23:35.454Z,17.4
2017-09-02T16:24:34.142Z,17.4
2017-09-02T16:25:33.960Z,17.3
2017-09-02T16:26:32.893Z,17.3
2017-09-02T16:27:32.228Z,17.3
2017-09-02T16:28:31.550Z,17.3
2017-09-02T16:29:31.114Z,17.2
2017-09-02T16:30:30.296Z,17.1
2017-09-02T16:31:29.494Z,17
2017-09-02T16:32:28.685Z,16.9
2017-09-02T16:33:28.370Z,16.9
2017-09-02T16:34:27.821Z,16.9
2017-09-02T16:35:26.891Z,16.8
2017-09-02T16:37:25.482Z,16.8
2017-09-02T16:38:24.695Z,16.8
2017-09-02T16:39:24.135Z,16.8
2017-09-02T16:40:23.330Z,16.8
2017-09-02T16:41:22.682Z,16.7
2017-09-02T16:42:22.128Z,16.7
2017-09-02T16:43:21.442Z,16.7
2017-09-02T16:44:20.652Z,16.7
2017-09-02T16:45:20.094Z,16.7
2017-09-02T16:46:19.034Z,16.7
2017-09-02T16:47:18.988Z,16.7
2017-09-02T16:48:18.303Z,16.6
2017-09-02T16:49:17.120Z,16.6
2017-09-02T16:50:16.556Z,16.5
2017-09-02T16:51:16.166Z,16.5
2017-09-02T16:52:15.109Z,16.5
2017-09-02T16:53:14.182Z,16.5
2017-09-02T16:54:13.632Z,16.5
2017-09-02T16:55:12.948Z,16.4
2017-09-02T16:56:12.271Z,16.4
2017-09-02T16:57:11.726Z,16.4
2017-09-02T16:58:11.183Z,16.3
2017-09-02T16:59:10.625Z,16.3
2017-09-02T17:00:09.818Z,16.3
2017-09-02T17:01:08.885Z,16.3
2017-09-02T17:02:08.335Z,16.3
2017-09-02T17:03:07.655Z,16.3
2017-09-02T17:04:06.597Z,16.3
2017-09-02T17:05:06.293Z,16.3
2017-09-02T17:06:05.231Z,16.3
2017-09-02T17:07:04.674Z,16.2
2017-09-02T17:08:03.745Z,16.2
2017-09-02T17:09:03.444Z,16.2
2017-09-02T17:10:03.026Z,16.2
2017-09-02T17:11:01.584Z,16.2
2017-09-02T17:12:00.898Z,16.1
2017-09-02T17:13:00.722Z,16.1
2017-09-02T17:13:59.899Z,16.1
2017-09-02T17:14:59.203Z,16.1
2017-09-02T17:15:58.515Z,16.1
2017-09-02T17:16:57.703Z,16.2
2017-09-02T17:17:57.055Z,16.2
2017-09-02T17:18:56.493Z,16.2
2017-09-02T17:19:55.315Z,16.2
2017-09-02T17:20:55.016Z,16.2
2017-09-02T17:22:53.840Z,16.2
2017-09-02T17:23:52.666Z,16.2
2017-09-02T17:25:51.607Z,16.1
2017-09-02T17:26:50.665Z,16.1
2017-09-02T17:27:50.130Z,16.1
2017-09-02T17:28:49.240Z,16.1
2017-09-02T17:29:48.936Z,16
2017-09-02T17:30:47.886Z,16
2017-09-02T17:31:47.332Z,16
2017-09-02T17:32:46.772Z,15.9
2017-09-02T17:33:45.472Z,15.9
2017-09-02T17:34:45.297Z,15.9
2017-09-02T17:36:43.525Z,15.9
2017-09-02T17:37:43.092Z,15.8
2017-09-02T17:38:42.187Z,15.8
2017-09-02T17:39:41.637Z,15.7
2017-09-02T17:40:40.582Z,15.7
2017-09-02T17:41:40.402Z,15.6
2017-09-02T17:42:39.340Z,15.7
2017-09-02T17:43:38.397Z,15.6
2017-09-02T17:44:37.832Z,15.6
2017-09-02T17:45:37.276Z,15.6
2017-09-02T17:47:35.999Z,15.6
2017-09-02T17:48:35.320Z,15.6
2017-09-02T17:49:34.275Z,15.5
2017-09-02T17:50:33.724Z,15.5
2017-09-02T17:51:32.912Z,15.5
2017-09-02T17:52:32.346Z,15.5
2017-09-02T17:53:31.660Z,15.5
2017-09-02T17:54:02.167Z,15.5
2017-09-02T17:54:32.415Z,15.5
2017-09-02T17:55:03.049Z,15.5
2017-09-02T17:56:29.410Z,15.5
2017-09-02T17:57:28.717Z,15.4
2017-09-02T17:58:28.037Z,15.4
2017-09-02T17:59:27.362Z,15.4
2017-09-02T18:00:26.809Z,15.4
2017-09-02T18:01:25.997Z,15.4
2017-09-02T18:02:25.062Z,15.3
2017-09-02T18:03:24.635Z,15.3
2017-09-02T18:05:23.219Z,15.3
2017-09-02T18:07:21.423Z,15.3
2017-09-02T18:08:20.873Z,15.3
2017-09-02T18:09:20.569Z,15.3
2017-09-02T18:10:19.257Z,15.3
2017-09-02T18:11:18.575Z,15.3
2017-09-02T18:12:17.908Z,15.3
2017-09-02T18:13:17.217Z,15.2
2017-09-02T18:14:16.661Z,15.2
2017-09-02T18:15:15.862Z,15.2
2017-09-02T18:17:14.578Z,15.2
2017-09-02T18:18:14.021Z,15.2
2017-09-02T18:19:13.082Z,15.2
2017-09-02T18:20:12.284Z,15.2
2017-09-02T18:21:11.855Z,15.2
2017-09-02T18:22:10.552Z,15.2
2017-09-02T18:23:10.145Z,15.1
2017-09-02T18:24:09.459Z,15.1
2017-09-02T18:25:08.304Z,15.1
2017-09-02T18:26:07.806Z,15.1
2017-09-02T18:27:06.904Z,15.1
2017-09-02T18:28:06.463Z,15.1
2017-09-02T18:29:06.029Z,15.1
2017-09-02T18:30:05.353Z,15.1
2017-09-02T18:31:04.044Z,15.1
2017-09-02T18:32:03.368Z,15.1
2017-09-02T18:33:02.878Z,15.1
2017-09-02T18:35:01.462Z,15.1
2017-09-02T18:36:00.671Z,15.1
2017-09-02T18:36:59.737Z,15.1
2017-09-02T18:38:58.307Z,15
2017-09-02T18:40:57.256Z,15
2017-09-02T18:41:56.449Z,15
2017-09-02T18:42:55.781Z,15
2017-09-02T18:43:54.767Z,15
2017-09-02T18:44:53.950Z,15
2017-09-02T18:45:53.652Z,15
2017-09-02T18:46:52.865Z,15
2017-09-02T18:47:51.813Z,15
2017-09-02T18:48:51.249Z,14.9
2017-09-02T18:49:50.575Z,14.9
2017-09-02T18:50:49.914Z,14.9
2017-09-02T18:51:49.132Z,14.9
2017-09-02T18:52:48.600Z,14.9
2017-09-02T18:55:46.322Z,14.8
2017-09-02T18:56:45.394Z,14.8
2017-09-02T18:57:44.587Z,14.7
2017-09-02T18:58:43.778Z,14.7
2017-09-02T18:59:42.974Z,14.6
2017-09-02T19:00:42.556Z,14.6
2017-09-02T19:01:41.622Z,14.6
2017-09-02T19:02:40.930Z,14.5
2017-09-02T19:05:38.683Z,14.5
2017-09-02T19:06:38.014Z,14.5
2017-09-02T19:07:37.620Z,14.5
2017-09-02T19:08:36.471Z,14.5
2017-09-02T19:10:35.294Z,14.5
2017-09-02T19:12:33.498Z,14.4
2017-09-02T19:13:32.688Z,14.4
2017-09-02T19:15:31.661Z,14.4
2017-09-02T19:16:30.605Z,14.4
2017-09-02T19:17:30.213Z,14.4
2017-09-02T19:18:29.156Z,14.4
2017-09-02T19:19:28.507Z,14.4
2017-09-02T19:20:27.836Z,14.4
2017-09-02T19:21:26.934Z,14.4
2017-09-02T19:22:26.259Z,14.4
2017-09-02T19:23:25.568Z,14.4
2017-09-02T19:25:24.032Z,14.4
2017-09-02T19:26:23.333Z,14.4
2017-09-02T19:27:22.646Z,14.4
2017-09-02T19:28:21.954Z,14.3
2017-09-02T19:29:21.021Z,14.3
2017-09-02T19:30:20.214Z,14.3
2017-09-02T19:31:19.909Z,14.3
2017-09-02T19:32:18.847Z,14.3
2017-09-02T19:33:18.160Z,14.3
2017-09-02T19:35:16.612Z,14.3
2017-09-02T19:36:16.058Z,14.3
2017-09-02T19:37:15.127Z,14.3
2017-09-02T19:38:14.699Z,14.3
2017-09-02T19:39:13.505Z,14.2
2017-09-02T19:40:12.967Z,14.2
2017-09-02T19:41:12.036Z,14.2
2017-09-02T19:42:11.594Z,14.2
2017-09-02T19:43:10.544Z,14.2
2017-09-02T19:44:10.250Z,14.2
2017-09-02T19:45:09.216Z,14.1
2017-09-02T19:46:08.543Z,14.1
2017-09-02T19:47:07.611Z,14.1
2017-09-02T19:48:06.815Z,14.1
2017-09-02T19:49:06.124Z,14.1
2017-09-02T19:50:05.708Z,14.1
2017-09-02T19:51:04.646Z,14
2017-09-02T19:52:03.987Z,14
2017-09-02T19:53:03.585Z,14
2017-09-02T19:54:02.416Z,14
2017-09-02T19:55:01.870Z,13.9
2017-09-02T19:56:01.325Z,13.9
2017-09-02T19:57:00.150Z,13.9
2017-09-02T19:57:59.461Z,13.9
2017-09-02T20:00:57.556Z,13.9
2017-09-02T20:01:56.370Z,13.9
2017-09-02T20:02:55.798Z,13.8
2017-09-02T20:03:55.245Z,13.8
2017-09-02T20:04:54.063Z,13.8
2017-09-02T20:06:52.912Z,13.8
2017-09-02T20:07:51.978Z,13.8
2017-09-02T20:08:51.317Z,13.8
2017-09-02T20:09:50.269Z,13.8
2017-09-02T20:10:49.967Z,13.8
2017-09-02T20:11:49.169Z,13.8
2017-09-02T20:13:47.240Z,13.8
2017-09-02T20:14:47.192Z,13.8
2017-09-02T20:15:46.148Z,13.8
2017-09-02T20:16:45.459Z,13.8
2017-09-02T20:17:44.527Z,13.7
2017-09-02T20:18:43.711Z,13.7
2017-09-02T20:19:43.025Z,13.7
2017-09-02T20:20:42.497Z,13.7
2017-09-02T20:21:41.583Z,13.7
2017-09-02T20:22:40.795Z,13.7
2017-09-02T20:24:39.132Z,13.7
2017-09-02T20:25:38.202Z,13.7
2017-09-02T20:26:37.638Z,13.7
2017-09-02T20:27:36.827Z,13.7
2017-09-02T20:28:36.139Z,13.7
2017-09-02T20:29:35.320Z,13.7
2017-09-02T20:30:34.881Z,13.7
2017-09-02T20:31:33.690Z,13.7
2017-09-02T20:34:31.783Z,13.7
2017-09-02T20:35:30.849Z,13.7
2017-09-02T20:36:30.215Z,13.7
2017-09-02T20:37:29.531Z,13.7
2017-09-02T20:38:28.729Z,13.7
2017-09-02T20:39:27.921Z,13.7
2017-09-02T20:40:27.115Z,13.7
2017-09-02T20:41:26.571Z,13.7
2017-09-02T20:42:25.674Z,13.7
2017-09-02T20:44:24.249Z,13.8
2017-09-02T20:45:23.444Z,13.8
2017-09-02T20:46:22.754Z,13.8
2017-09-02T20:47:22.214Z,13.8
2017-09-02T20:48:21.310Z,13.9
2017-09-02T20:49:20.524Z,13.8
2017-09-02T20:49:50.900Z,13.8
2017-09-02T20:51:18.769Z,13.8
2017-09-02T20:52:18.216Z,13.9
2017-09-02T20:54:16.786Z,13.8
2017-09-02T20:55:15.721Z,13.9
2017-09-02T20:56:15.170Z,13.8
2017-09-02T20:57:14.617Z,13.8
2017-09-02T20:58:13.299Z,13.8
2017-09-02T20:59:13.010Z,13.8
2017-09-02T21:00:12.190Z,13.8
2017-09-02T21:01:11.134Z,13.8
2017-09-02T21:02:10.583Z,13.8
2017-09-02T21:04:09.325Z,13.9
2017-09-02T21:06:07.526Z,13.9
2017-09-02T21:07:06.583Z,13.9
2017-09-02T21:08:06.285Z,13.9
2017-09-02T21:09:05.097Z,13.9
2017-09-02T21:10:04.701Z,13.9
2017-09-02T21:11:04.143Z,13.9
2017-09-02T21:12:02.957Z,13.9
2017-09-02T21:13:02.410Z,13.9
2017-09-02T21:14:01.241Z,13.9
2017-09-02T21:15:00.707Z,13.8
2017-09-02T21:16:00.288Z,13.8
2017-09-02T21:16:59.134Z,13.8
2017-09-02T21:17:58.329Z,13.8
2017-09-02T21:18:57.648Z,13.8
2017-09-02T21:19:56.957Z,13.8
2017-09-02T21:20:56.301Z,13.8
2017-09-02T21:21:55.383Z,13.8
2017-09-02T21:22:54.456Z,13.8
2017-09-02T21:23:53.776Z,13.7
2017-09-02T21:24:53.213Z,13.7
2017-09-02T21:26:51.783Z,13.7
2017-09-02T21:27:51.093Z,13.7
2017-09-02T21:28:49.902Z,13.7
2017-09-02T21:29:49.471Z,13.7
2017-09-02T21:30:48.811Z,13.7
2017-09-02T21:31:47.870Z,13.6
2017-09-02T21:33:46.696Z,13.6
2017-09-02T21:34:45.512Z,13.6
2017-09-02T21:35:44.701Z,13.6
2017-09-02T21:36:43.895Z,13.6
2017-09-02T21:37:43.482Z,13.6
2017-09-02T21:38:42.775Z,13.6
2017-09-02T21:39:41.589Z,13.6
2017-09-02T21:40:41.030Z,13.5
2017-09-02T21:41:40.106Z,13.5
2017-09-02T21:42:39.298Z,13.5
2017-09-02T21:43:10.173Z,13.5
2017-09-02T21:44:38.184Z,13.5
2017-09-02T21:45:37.369Z,13.4
2017-09-02T21:46:36.342Z,13.4
2017-09-02T21:47:35.775Z,13.4
2017-09-02T21:48:35.223Z,13.4
2017-09-02T21:49:34.028Z,13.3
2017-09-02T21:50:33.606Z,13.3
2017-09-02T21:51:32.674Z,13.3
2017-09-02T21:52:31.983Z,13.2
2017-09-02T21:53:31.060Z,13.2
2017-09-02T21:54:30.507Z,13.2
2017-09-02T21:55:29.454Z,13.2
2017-09-02T21:56:28.764Z,13.1
2017-09-02T21:57:27.959Z,13.1
2017-09-02T21:58:27.157Z,13.1
2017-09-02T21:59:26.350Z,13.1
2017-09-02T22:00:25.802Z,13.1
2017-09-02T22:01:24.997Z,13.1
2017-09-02T22:02:24.441Z,13.1
2017-09-02T22:03:23.909Z,13.1
2017-09-02T22:04:22.722Z,13.1
2017-09-02T22:05:21.658Z,13
2017-09-02T22:06:21.231Z,13
2017-09-02T22:07:20.547Z,13
2017-09-02T22:08:19.613Z,13
2017-09-02T22:09:18.924Z,12.9
2017-09-02T22:10:18.106Z,13
2017-09-02T22:11:17.414Z,12.9
2017-09-02T22:12:16.473Z,12.9
2017-09-02T22:13:15.663Z,12.9
2017-09-02T22:14:15.106Z,12.9
2017-09-02T22:15:14.428Z,12.9
2017-09-02T22:16:13.732Z,12.9
2017-09-02T22:17:12.928Z,12.9
2017-09-02T22:18:12.125Z,12.8
2017-09-02T22:19:11.191Z,12.8
2017-09-02T22:20:10.383Z,12.8
2017-09-02T22:21:09.951Z,12.8
2017-09-02T22:22:08.897Z,12.8
2017-09-02T22:23:08.217Z,12.7
2017-09-02T22:24:07.031Z,12.7
2017-09-02T22:25:06.849Z,12.7
2017-09-02T22:26:05.796Z,12.7
2017-09-02T22:27:05.345Z,12.7
2017-09-02T22:28:04.536Z,12.6
2017-09-02T22:29:03.365Z,12.6
2017-09-02T22:30:02.683Z,12.6
2017-09-02T22:32:01.046Z,12.6
2017-09-02T22:33:00.367Z,12.5
2017-09-02T22:33:59.571Z,12.5
2017-09-02T22:34:58.894Z,12.5
2017-09-02T22:35:58.093Z,12.5
2017-09-02T22:36:57.285Z,12.5
2017-09-02T22:37:56.859Z,12.6
2017-09-02T22:38:55.816Z,12.6
2017-09-02T22:39:54.868Z,12.6
2017-09-02T22:40:54.316Z,12.6
2017-09-02T22:41:53.259Z,12.6
2017-09-02T22:42:52.714Z,12.6
2017-09-02T22:43:51.781Z,12.6
2017-09-02T22:44:51.102Z,12.6
2017-09-02T22:45:50.417Z,12.6
2017-09-02T22:46:49.611Z,12.7
2017-09-02T22:47:48.538Z,12.6
2017-09-02T22:48:47.976Z,12.7
2017-09-02T22:49:47.299Z,12.7
2017-09-02T22:50:46.362Z,12.7
2017-09-02T22:51:45.688Z,12.8
2017-09-02T22:52:44.756Z,12.7
2017-09-02T22:53:44.200Z,12.8
2017-09-02T22:54:43.268Z,12.8
2017-09-02T22:55:42.571Z,12.7
2017-09-02T22:56:42.009Z,12.7
2017-09-02T22:57:40.832Z,12.7
2017-09-02T22:58:40.399Z,12.7
2017-09-02T22:59:39.340Z,12.7
2017-09-02T23:00:38.524Z,12.7
2017-09-02T23:01:38.097Z,12.7
2017-09-02T23:02:36.924Z,12.7
2017-09-02T23:03:35.987Z,12.7
2017-09-02T23:04:35.300Z,12.7
2017-09-02T23:05:34.738Z,12.7
2017-09-02T23:06:34.172Z,12.7
2017-09-02T23:07:04.297Z,12.7
2017-09-02T23:07:34.674Z,12.7
2017-09-02T23:08:05.308Z,12.7
2017-09-02T23:08:35.559Z,12.7
2017-09-02T23:09:06.331Z,12.7
2017-09-02T23:12:29.227Z,12.6
2017-09-02T23:13:28.540Z,12.6
2017-09-02T23:14:27.863Z,12.6
2017-09-02T23:15:27.178Z,12.6
2017-09-02T23:16:25.861Z,12.6
2017-09-02T23:17:25.055Z,12.6
2017-09-02T23:18:24.621Z,12.6
2017-09-02T23:19:23.976Z,12.6
2017-09-02T23:20:22.790Z,12.6
2017-09-02T23:21:22.230Z,12.6
2017-09-02T23:22:21.552Z,12.6
2017-09-02T23:23:20.748Z,12.6
2017-09-02T23:24:19.686Z,12.6
2017-09-02T23:26:18.526Z,12.6
2017-09-02T23:27:17.461Z,12.5
2017-09-02T23:28:16.527Z,12.5
2017-09-02T23:29:15.837Z,12.5
2017-09-02T23:30:15.035Z,12.5
2017-09-02T23:31:14.345Z,12.5
2017-09-02T23:32:13.779Z,12.5
2017-09-02T23:33:12.595Z,12.5
2017-09-02T23:34:12.048Z,12.5
2017-09-02T23:36:10.381Z,12.4
2017-09-02T23:37:09.695Z,12.4
2017-09-02T23:39:08.396Z,12.4
2017-09-02T23:40:07.463Z,12.4
2017-09-02T23:41:06.778Z,12.4
2017-09-02T23:42:05.601Z,12.4
2017-09-02T23:43:04.923Z,12.4
2017-09-02T23:44:04.383Z,12.4
2017-09-02T23:45:03.445Z,12.3
2017-09-02T23:46:02.637Z,12.4
2017-09-02T23:47:01.831Z,12.3
2017-09-02T23:49:00.531Z,12.3
2017-09-02T23:49:59.473Z,12.3
2017-09-02T23:50:29.846Z,12.3
2017-09-02T23:51:57.863Z,12.3
2017-09-02T23:52:57.189Z,12.3
2017-09-02T23:53:56.255Z,12.3
2017-09-02T23:54:55.698Z,12.2
2017-09-02T23:55:54.889Z,12.3
2017-09-02T23:56:54.083Z,12.3
2017-09-02T23:58:52.272Z,12.2
2017-09-02T23:59:51.711Z,12.2
